sensor_id;sensor_type;location;lat;lon;timestamp;temperature;humidity
25718;DHT22;13574;52.040;5.692;2023-05-15T00:01:19;18.90;99.70
25718;DHT22;13574;52.040;5.692;2023-05-15T00:03:46;18.80;99.60
25718;DHT22;13574;52.040;5.692;2023-05-15T00:06:12;18.90;99.60
25718;DHT22;13574;52.040;5.692;2023-05-15T00:08:38;18.90;99.70
25718;DHT22;13574;52.040;5.692;2023-05-15T00:11:04;18.80;99.70
25718;DHT22;13574;52.040;5.692;2023-05-15T00:13:30;18.80;99.80
25718;DHT22;13574;52.040;5.692;2023-05-15T00:15:56;18.70;99.60
25718;DHT22;13574;52.040;5.692;2023-05-15T00:18:21;18.70;99.60
25718;DHT22;13574;52.040;5.692;2023-05-15T00:20:47;18.60;99.40
25718;DHT22;13574;52.040;5.692;2023-05-15T00:23:13;18.50;99.60
25718;DHT22;13574;52.040;5.692;2023-05-15T00:25:38;18.40;99.90
25718;DHT22;13574;52.040;5.692;2023-05-15T00:28:04;18.40;99.90
25718;DHT22;13574;52.040;5.692;2023-05-15T00:30:30;18.60;99.90
25718;DHT22;13574;52.040;5.692;2023-05-15T00:32:55;18.60;99.80
25718;DHT22;13574;52.040;5.692;2023-05-15T00:35:21;18.40;99.20
25718;DHT22;13574;52.040;5.692;2023-05-15T00:37:47;18.50;99.50
25718;DHT22;13574;52.040;5.692;2023-05-15T00:40:19;18.60;99.80
25718;DHT22;13574;52.040;5.692;2023-05-15T00:42:45;18.50;99.90
25718;DHT22;13574;52.040;5.692;2023-05-15T00:45:12;18.30;99.90
25718;DHT22;13574;52.040;5.692;2023-05-15T00:47:39;18.40;99.90
25718;DHT22;13574;52.040;5.692;2023-05-15T00:50:09;18.40;99.90
25718;DHT22;13574;52.040;5.692;2023-05-15T00:52:36;18.50;99.90
25718;DHT22;13574;52.040;5.692;2023-05-15T00:55:02;18.40;99.90
25718;DHT22;13574;52.040;5.692;2023-05-15T00:57:29;18.30;99.70
25718;DHT22;13574;52.040;5.692;2023-05-15T00:59:56;18.30;99.90
25718;DHT22;13574;52.040;5.692;2023-05-15T01:02:22;18.30;99.90
25718;DHT22;13574;52.040;5.692;2023-05-15T01:04:48;18.30;99.90
25718;DHT22;13574;52.040;5.692;2023-05-15T01:07:14;18.30;99.90
25718;DHT22;13574;52.040;5.692;2023-05-15T01:09:41;18.40;99.90
25718;DHT22;13574;52.040;5.692;2023-05-15T01:12:14;18.30;99.90
25718;DHT22;13574;52.040;5.692;2023-05-15T01:14:41;18.30;99.90
25718;DHT22;13574;52.040;5.692;2023-05-15T01:17:06;18.20;99.90
25718;DHT22;13574;52.040;5.692;2023-05-15T01:19:32;18.30;99.90
25718;DHT22;13574;52.040;5.692;2023-05-15T01:22:28;18.20;99.90
25718;DHT22;13574;52.040;5.692;2023-05-15T01:27:47;18.10;99.90
25718;DHT22;13574;52.040;5.692;2023-05-15T01:30:27;18.10;99.90
25718;DHT22;13574;52.040;5.692;2023-05-15T01:36:02;18.10;99.90
25718;DHT22;13574;52.040;5.692;2023-05-15T01:38:46;18.10;99.90
25718;DHT22;13574;52.040;5.692;2023-05-15T01:44:06;18.10;99.90
25718;DHT22;13574;52.040;5.692;2023-05-15T01:46:41;17.90;99.90
25718;DHT22;13574;52.040;5.692;2023-05-15T01:49:10;18.00;99.90
25718;DHT22;13574;52.040;5.692;2023-05-15T01:51:38;17.90;99.90
25718;DHT22;13574;52.040;5.692;2023-05-15T01:54:06;17.90;99.90
25718;DHT22;13574;52.040;5.692;2023-05-15T01:56:34;17.80;99.90
25718;DHT22;13574;52.040;5.692;2023-05-15T01:59:01;17.80;99.90
25718;DHT22;13574;52.040;5.692;2023-05-15T02:01:31;17.80;99.90
25718;DHT22;13574;52.040;5.692;2023-05-15T02:03:57;17.90;99.90
25718;DHT22;13574;52.040;5.692;2023-05-15T02:06:24;17.80;99.90
25718;DHT22;13574;52.040;5.692;2023-05-15T02:08:50;17.90;99.90
25718;DHT22;13574;52.040;5.692;2023-05-15T02:11:17;17.80;99.90
25718;DHT22;13574;52.040;5.692;2023-05-15T02:13:43;17.70;99.90
25718;DHT22;13574;52.040;5.692;2023-05-15T02:16:09;17.70;99.90
25718;DHT22;13574;52.040;5.692;2023-05-15T02:18:35;17.70;99.90
25718;DHT22;13574;52.040;5.692;2023-05-15T02:21:01;17.60;99.90
25718;DHT22;13574;52.040;5.692;2023-05-15T02:23:27;17.60;99.90
25718;DHT22;13574;52.040;5.692;2023-05-15T02:26:30;17.60;99.90
25718;DHT22;13574;52.040;5.692;2023-05-15T02:29:18;17.50;99.90
25718;DHT22;13574;52.040;5.692;2023-05-15T02:34:38;17.40;99.90
25718;DHT22;13574;52.040;5.692;2023-05-15T02:37:12;17.50;99.90
25718;DHT22;13574;52.040;5.692;2023-05-15T02:39:39;17.60;99.90
25718;DHT22;13574;52.040;5.692;2023-05-15T02:42:07;17.60;99.90
25718;DHT22;13574;52.040;5.692;2023-05-15T02:44:35;17.60;99.90
25718;DHT22;13574;52.040;5.692;2023-05-15T02:47:03;17.60;99.90
25718;DHT22;13574;52.040;5.692;2023-05-15T02:49:29;17.70;99.90
25718;DHT22;13574;52.040;5.692;2023-05-15T02:51:54;17.70;99.90
25718;DHT22;13574;52.040;5.692;2023-05-15T02:54:20;17.90;99.90
25718;DHT22;13574;52.040;5.692;2023-05-15T02:56:46;17.80;99.90
25718;DHT22;13574;52.040;5.692;2023-05-15T02:59:12;17.80;99.90
25718;DHT22;13574;52.040;5.692;2023-05-15T03:01:43;17.90;99.90
25718;DHT22;13574;52.040;5.692;2023-05-15T03:04:09;18.00;99.90
25718;DHT22;13574;52.040;5.692;2023-05-15T03:06:34;18.00;99.90
25718;DHT22;13574;52.040;5.692;2023-05-15T03:09:00;18.10;99.90
25718;DHT22;13574;52.040;5.692;2023-05-15T03:11:26;18.10;99.90
25718;DHT22;13574;52.040;5.692;2023-05-15T03:13:51;18.10;99.90
25718;DHT22;13574;52.040;5.692;2023-05-15T03:16:17;18.20;99.90
25718;DHT22;13574;52.040;5.692;2023-05-15T03:18:42;18.20;99.90
25718;DHT22;13574;52.040;5.692;2023-05-15T03:21:08;18.10;99.90
25718;DHT22;13574;52.040;5.692;2023-05-15T03:23:34;18.20;99.90
25718;DHT22;13574;52.040;5.692;2023-05-15T03:25:59;18.00;99.90
25718;DHT22;13574;52.040;5.692;2023-05-15T03:28:25;18.00;99.90
25718;DHT22;13574;52.040;5.692;2023-05-15T03:30:51;18.20;99.90
25718;DHT22;13574;52.040;5.692;2023-05-15T03:33:16;18.00;99.90
25718;DHT22;13574;52.040;5.692;2023-05-15T03:35:42;18.10;99.90
25718;DHT22;13574;52.040;5.692;2023-05-15T03:38:09;18.10;99.90
25718;DHT22;13574;52.040;5.692;2023-05-15T03:40:36;18.10;99.90
25718;DHT22;13574;52.040;5.692;2023-05-15T03:43:02;18.10;99.90
25718;DHT22;13574;52.040;5.692;2023-05-15T03:45:27;18.10;99.90
25718;DHT22;13574;52.040;5.692;2023-05-15T03:47:53;18.10;99.90
25718;DHT22;13574;52.040;5.692;2023-05-15T03:50:19;18.00;99.90
25718;DHT22;13574;52.040;5.692;2023-05-15T03:52:45;18.00;99.90
25718;DHT22;13574;52.040;5.692;2023-05-15T03:55:11;18.00;99.90
25718;DHT22;13574;52.040;5.692;2023-05-15T03:57:36;18.00;99.90
25718;DHT22;13574;52.040;5.692;2023-05-15T04:00:03;18.00;99.90
25718;DHT22;13574;52.040;5.692;2023-05-15T04:02:34;18.00;99.90
25718;DHT22;13574;52.040;5.692;2023-05-15T04:04:59;18.00;99.90
25718;DHT22;13574;52.040;5.692;2023-05-15T04:07:25;18.00;99.90
25718;DHT22;13574;52.040;5.692;2023-05-15T04:09:51;17.90;99.90
25718;DHT22;13574;52.040;5.692;2023-05-15T04:12:17;17.90;99.90
25718;DHT22;13574;52.040;5.692;2023-05-15T04:14:42;18.00;99.90
25718;DHT22;13574;52.040;5.692;2023-05-15T04:17:08;17.90;99.90
25718;DHT22;13574;52.040;5.692;2023-05-15T04:19:34;17.90;99.90
25718;DHT22;13574;52.040;5.692;2023-05-15T04:21:59;17.90;99.90
25718;DHT22;13574;52.040;5.692;2023-05-15T04:24:25;17.90;99.90
25718;DHT22;13574;52.040;5.692;2023-05-15T04:26:51;17.90;99.90
25718;DHT22;13574;52.040;5.692;2023-05-15T04:29:16;17.80;99.90
25718;DHT22;13574;52.040;5.692;2023-05-15T04:31:42;17.80;99.90
25718;DHT22;13574;52.040;5.692;2023-05-15T04:34:07;17.90;99.90
25718;DHT22;13574;52.040;5.692;2023-05-15T04:36:33;17.90;99.90
25718;DHT22;13574;52.040;5.692;2023-05-15T04:38:59;17.90;99.90
25718;DHT22;13574;52.040;5.692;2023-05-15T04:41:25;18.00;99.90
25718;DHT22;13574;52.040;5.692;2023-05-15T04:43:51;17.80;99.90
25718;DHT22;13574;52.040;5.692;2023-05-15T04:46:16;17.90;99.90
25718;DHT22;13574;52.040;5.692;2023-05-15T04:48:42;18.00;99.90
25718;DHT22;13574;52.040;5.692;2023-05-15T04:51:09;17.80;99.90
25718;DHT22;13574;52.040;5.692;2023-05-15T04:53:35;18.00;99.90
25718;DHT22;13574;52.040;5.692;2023-05-15T04:56:00;17.90;99.90
25718;DHT22;13574;52.040;5.692;2023-05-15T04:58:26;17.80;99.90
25718;DHT22;13574;52.040;5.692;2023-05-15T05:00:51;17.80;99.90
25718;DHT22;13574;52.040;5.692;2023-05-15T05:03:17;17.80;99.90
25718;DHT22;13574;52.040;5.692;2023-05-15T05:05:43;17.70;99.90
25718;DHT22;13574;52.040;5.692;2023-05-15T05:08:08;18.00;99.90
25718;DHT22;13574;52.040;5.692;2023-05-15T05:10:34;18.10;99.90
25718;DHT22;13574;52.040;5.692;2023-05-15T05:13:00;18.40;99.90
25718;DHT22;13574;52.040;5.692;2023-05-15T05:15:25;18.40;99.90
25718;DHT22;13574;52.040;5.692;2023-05-15T05:17:51;18.40;99.80
25718;DHT22;13574;52.040;5.692;2023-05-15T05:20:17;18.40;99.80
25718;DHT22;13574;52.040;5.692;2023-05-15T05:22:43;18.50;99.60
25718;DHT22;13574;52.040;5.692;2023-05-15T05:25:09;18.70;99.50
25718;DHT22;13574;52.040;5.692;2023-05-15T05:27:35;18.90;99.30
25718;DHT22;13574;52.040;5.692;2023-05-15T05:30:00;19.00;99.10
25718;DHT22;13574;52.040;5.692;2023-05-15T05:32:26;19.00;99.00
25718;DHT22;13574;52.040;5.692;2023-05-15T05:34:52;19.10;98.90
25718;DHT22;13574;52.040;5.692;2023-05-15T05:37:17;19.00;98.50
25718;DHT22;13574;52.040;5.692;2023-05-15T05:39:43;18.90;98.60
25718;DHT22;13574;52.040;5.692;2023-05-15T05:42:11;19.00;98.60
25718;DHT22;13574;52.040;5.692;2023-05-15T05:44:40;19.10;98.60
25718;DHT22;13574;52.040;5.692;2023-05-15T05:50:29;19.40;98.10
25718;DHT22;13574;52.040;5.692;2023-05-15T05:52:54;19.50;97.90
25718;DHT22;13574;52.040;5.692;2023-05-15T05:55:20;19.60;97.90
25718;DHT22;13574;52.040;5.692;2023-05-15T05:57:46;19.60;97.50
25718;DHT22;13574;52.040;5.692;2023-05-15T06:00:12;19.60;97.20
25718;DHT22;13574;52.040;5.692;2023-05-15T06:02:39;19.80;97.20
25718;DHT22;13574;52.040;5.692;2023-05-15T06:05:05;19.90;96.80
25718;DHT22;13574;52.040;5.692;2023-05-15T06:07:32;20.00;96.50
25718;DHT22;13574;52.040;5.692;2023-05-15T06:09:58;19.90;96.60
25718;DHT22;13574;52.040;5.692;2023-05-15T06:12:24;20.30;96.70
25718;DHT22;13574;52.040;5.692;2023-05-15T06:14:50;20.60;96.40
25718;DHT22;13574;52.040;5.692;2023-05-15T06:17:16;20.60;95.70
25718;DHT22;13574;52.040;5.692;2023-05-15T06:19:41;20.90;95.70
25718;DHT22;13574;52.040;5.692;2023-05-15T06:22:07;21.10;95.20
25718;DHT22;13574;52.040;5.692;2023-05-15T06:24:33;21.00;95.00
25718;DHT22;13574;52.040;5.692;2023-05-15T06:26:58;21.10;94.90
25718;DHT22;13574;52.040;5.692;2023-05-15T06:29:25;21.20;94.20
25718;DHT22;13574;52.040;5.692;2023-05-15T06:31:50;21.10;94.40
25718;DHT22;13574;52.040;5.692;2023-05-15T06:34:16;21.30;94.90
25718;DHT22;13574;52.040;5.692;2023-05-15T06:36:42;21.80;94.50
25718;DHT22;13574;52.040;5.692;2023-05-15T06:39:07;22.10;94.00
25718;DHT22;13574;52.040;5.692;2023-05-15T06:41:36;22.30;93.10
25718;DHT22;13574;52.040;5.692;2023-05-15T06:44:03;22.50;93.10
25718;DHT22;13574;52.040;5.692;2023-05-15T06:46:29;22.60;92.90
25718;DHT22;13574;52.040;5.692;2023-05-15T06:48:55;22.70;92.80
25718;DHT22;13574;52.040;5.692;2023-05-15T06:51:20;23.30;92.50
25718;DHT22;13574;52.040;5.692;2023-05-15T06:53:46;23.40;92.00
25718;DHT22;13574;52.040;5.692;2023-05-15T06:56:11;23.50;92.00
25718;DHT22;13574;52.040;5.692;2023-05-15T06:58:37;23.60;91.50
25718;DHT22;13574;52.040;5.692;2023-05-15T07:01:03;24.90;91.10
25718;DHT22;13574;52.040;5.692;2023-05-15T07:03:30;26.60;89.30
25718;DHT22;13574;52.040;5.692;2023-05-15T07:05:56;28.20;86.80
25718;DHT22;13574;52.040;5.692;2023-05-15T07:08:21;29.30;82.90
25718;DHT22;13574;52.040;5.692;2023-05-15T07:10:47;29.30;80.20
25718;DHT22;13574;52.040;5.692;2023-05-15T07:13:15;29.50;80.00
25718;DHT22;13574;52.040;5.692;2023-05-15T07:15:42;30.50;79.60
25718;DHT22;13574;52.040;5.692;2023-05-15T07:18:07;32.30;77.10
25718;DHT22;13574;52.040;5.692;2023-05-15T07:20:33;34.00;73.60
25718;DHT22;13574;52.040;5.692;2023-05-15T07:22:59;34.90;71.20
25718;DHT22;13574;52.040;5.692;2023-05-15T07:25:24;35.10;69.70
25718;DHT22;13574;52.040;5.692;2023-05-15T07:27:50;35.00;69.60
25718;DHT22;13574;52.040;5.692;2023-05-15T07:30:16;34.80;69.30
25718;DHT22;13574;52.040;5.692;2023-05-15T07:32:41;34.70;68.50
25718;DHT22;13574;52.040;5.692;2023-05-15T07:35:07;34.70;68.20
25718;DHT22;13574;52.040;5.692;2023-05-15T07:37:36;35.70;67.40
25718;DHT22;13574;52.040;5.692;2023-05-15T07:40:01;36.90;66.00
25718;DHT22;13574;52.040;5.692;2023-05-15T07:42:28;38.00;64.10
25718;DHT22;13574;52.040;5.692;2023-05-15T07:44:54;39.20;62.60
25718;DHT22;13574;52.040;5.692;2023-05-15T07:47:20;39.40;60.40
25718;DHT22;13574;52.040;5.692;2023-05-15T07:49:45;39.00;61.40
25718;DHT22;13574;52.040;5.692;2023-05-15T07:52:11;38.70;60.90
25718;DHT22;13574;52.040;5.692;2023-05-15T07:54:37;37.90;61.20
25718;DHT22;13574;52.040;5.692;2023-05-15T07:57:04;37.80;62.00
25718;DHT22;13574;52.040;5.692;2023-05-15T07:59:30;38.00;61.70
25718;DHT22;13574;52.040;5.692;2023-05-15T08:01:55;38.20;61.60
25718;DHT22;13574;52.040;5.692;2023-05-15T08:04:21;38.40;60.60
25718;DHT22;13574;52.040;5.692;2023-05-15T08:06:46;39.20;60.40
25718;DHT22;13574;52.040;5.692;2023-05-15T08:09:12;39.80;59.30
25718;DHT22;13574;52.040;5.692;2023-05-15T08:11:38;39.90;59.50
25718;DHT22;13574;52.040;5.692;2023-05-15T08:14:03;40.40;58.10
25718;DHT22;13574;52.040;5.692;2023-05-15T08:16:29;41.00;56.70
25718;DHT22;13574;52.040;5.692;2023-05-15T08:18:55;41.60;57.80
25718;DHT22;13574;52.040;5.692;2023-05-15T08:21:26;42.10;57.30
25718;DHT22;13574;52.040;5.692;2023-05-15T08:23:51;42.50;55.30
25718;DHT22;13574;52.040;5.692;2023-05-15T08:26:17;43.20;55.00
25718;DHT22;13574;52.040;5.692;2023-05-15T08:28:43;43.20;54.80
25718;DHT22;13574;52.040;5.692;2023-05-15T08:31:09;43.30;55.00
25718;DHT22;13574;52.040;5.692;2023-05-15T08:33:34;43.10;55.00
25718;DHT22;13574;52.040;5.692;2023-05-15T08:36:00;43.10;54.20
25718;DHT22;13574;52.040;5.692;2023-05-15T08:38:26;42.60;55.00
25718;DHT22;13574;52.040;5.692;2023-05-15T08:40:53;42.00;53.80
25718;DHT22;13574;52.040;5.692;2023-05-15T08:43:22;41.70;54.80
25718;DHT22;13574;52.040;5.692;2023-05-15T08:45:49;42.40;55.40
25718;DHT22;13574;52.040;5.692;2023-05-15T08:48:16;42.80;54.90
25718;DHT22;13574;52.040;5.692;2023-05-15T08:50:45;42.80;55.60
25718;DHT22;13574;52.040;5.692;2023-05-15T08:53:12;42.20;54.60
25718;DHT22;13574;52.040;5.692;2023-05-15T08:55:37;40.90;55.50
25718;DHT22;13574;52.040;5.692;2023-05-15T08:58:03;39.90;55.80
25718;DHT22;13574;52.040;5.692;2023-05-15T09:00:29;39.30;57.60
25718;DHT22;13574;52.040;5.692;2023-05-15T09:02:58;39.10;58.10
25718;DHT22;13574;52.040;5.692;2023-05-15T09:05:24;38.90;58.20
25718;DHT22;13574;52.040;5.692;2023-05-15T09:07:52;37.30;58.70
25718;DHT22;13574;52.040;5.692;2023-05-15T09:10:18;36.50;60.50
25718;DHT22;13574;52.040;5.692;2023-05-15T09:12:44;35.60;61.80
25718;DHT22;13574;52.040;5.692;2023-05-15T09:15:17;34.80;62.10
25718;DHT22;13574;52.040;5.692;2023-05-15T09:17:46;33.70;63.80
25718;DHT22;13574;52.040;5.692;2023-05-15T09:20:25;33.40;65.40
25718;DHT22;13574;52.040;5.692;2023-05-15T09:22:51;32.80;65.20
25718;DHT22;13574;52.040;5.692;2023-05-15T09:27:59;32.70;65.80
25718;DHT22;13574;52.040;5.692;2023-05-15T09:30:28;32.70;65.40
25718;DHT22;13574;52.040;5.692;2023-05-15T09:33:00;32.10;65.60
25718;DHT22;13574;52.040;5.692;2023-05-15T09:35:35;31.50;67.70
25718;DHT22;13574;52.040;5.692;2023-05-15T09:38:03;30.90;67.80
25718;DHT22;13574;52.040;5.692;2023-05-15T09:40:30;30.20;68.80
25718;DHT22;13574;52.040;5.692;2023-05-15T09:42:56;29.90;70.60
25718;DHT22;13574;52.040;5.692;2023-05-15T09:45:22;29.60;71.10
25718;DHT22;13574;52.040;5.692;2023-05-15T09:47:51;29.10;71.10
25718;DHT22;13574;52.040;5.692;2023-05-15T09:50:26;28.80;72.10
25718;DHT22;13574;52.040;5.692;2023-05-15T09:52:58;28.60;73.10
25718;DHT22;13574;52.040;5.692;2023-05-15T09:55:24;28.40;73.60
25718;DHT22;13574;52.040;5.692;2023-05-15T09:58:06;28.30;74.20
25718;DHT22;13574;52.040;5.692;2023-05-15T10:00:33;27.10;75.50
25718;DHT22;13574;52.040;5.692;2023-05-15T10:03:02;27.10;74.80
25718;DHT22;13574;52.040;5.692;2023-05-15T10:05:29;27.20;74.40
25718;DHT22;13574;52.040;5.692;2023-05-15T10:07:56;27.30;71.80
25718;DHT22;13574;52.040;5.692;2023-05-15T10:10:22;27.00;73.60
25718;DHT22;13574;52.040;5.692;2023-05-15T10:12:50;27.10;74.10
25718;DHT22;13574;52.040;5.692;2023-05-15T10:15:17;26.90;75.30
25718;DHT22;13574;52.040;5.692;2023-05-15T10:17:44;26.30;75.00
25718;DHT22;13574;52.040;5.692;2023-05-15T10:20:10;26.00;76.50
25718;DHT22;13574;52.040;5.692;2023-05-15T10:22:39;25.50;77.70
25718;DHT22;13574;52.040;5.692;2023-05-15T10:26:01;25.60;79.30
25718;DHT22;13574;52.040;5.692;2023-05-15T10:28:01;25.70;79.70
25718;DHT22;13574;52.040;5.692;2023-05-15T10:30:28;25.30;80.90
25718;DHT22;13574;52.040;5.692;2023-05-15T10:32:56;25.30;80.80
25718;DHT22;13574;52.040;5.692;2023-05-15T10:35:22;24.80;81.70
25718;DHT22;13574;52.040;5.692;2023-05-15T10:37:48;24.40;82.30
25718;DHT22;13574;52.040;5.692;2023-05-15T10:40:16;24.60;82.70
25718;DHT22;13574;52.040;5.692;2023-05-15T10:42:44;24.60;82.70
25718;DHT22;13574;52.040;5.692;2023-05-15T10:45:12;24.50;82.90
25718;DHT22;13574;52.040;5.692;2023-05-15T10:47:40;24.60;82.50
25718;DHT22;13574;52.040;5.692;2023-05-15T10:50:07;24.30;83.50
25718;DHT22;13574;52.040;5.692;2023-05-15T10:52:33;24.50;83.60
25718;DHT22;13574;52.040;5.692;2023-05-15T10:55:00;24.40;83.80
25718;DHT22;13574;52.040;5.692;2023-05-15T10:57:28;24.50;83.50
25718;DHT22;13574;52.040;5.692;2023-05-15T10:59:55;24.70;84.20
25718;DHT22;13574;52.040;5.692;2023-05-15T11:02:27;24.30;84.40
25718;DHT22;13574;52.040;5.692;2023-05-15T11:04:59;24.20;85.70
25718;DHT22;13574;52.040;5.692;2023-05-15T11:07:27;24.50;86.70
25718;DHT22;13574;52.040;5.692;2023-05-15T11:09:54;24.50;86.60
25718;DHT22;13574;52.040;5.692;2023-05-15T11:12:21;24.30;87.00
25718;DHT22;13574;52.040;5.692;2023-05-15T11:17:19;24.00;87.70
25718;DHT22;13574;52.040;5.692;2023-05-15T11:22:31;24.30;88.50
25718;DHT22;13574;52.040;5.692;2023-05-15T11:24:59;24.30;88.90
25718;DHT22;13574;52.040;5.692;2023-05-15T11:27:42;24.50;88.70
25718;DHT22;13574;52.040;5.692;2023-05-15T11:30:19;24.40;88.90
25718;DHT22;13574;52.040;5.692;2023-05-15T11:35:18;23.50;90.30
25718;DHT22;13574;52.040;5.692;2023-05-15T11:37:51;23.40;90.40
25718;DHT22;13574;52.040;5.692;2023-05-15T11:40:35;23.30;90.70
25718;DHT22;13574;52.040;5.692;2023-05-15T11:43:22;23.20;90.60
25718;DHT22;13574;52.040;5.692;2023-05-15T11:48:36;23.10;91.10
25718;DHT22;13574;52.040;5.692;2023-05-15T11:51:04;23.30;91.00
25718;DHT22;13574;52.040;5.692;2023-05-15T11:53:31;23.40;91.00
25718;DHT22;13574;52.040;5.692;2023-05-15T11:55:57;23.30;90.80
25718;DHT22;13574;52.040;5.692;2023-05-15T11:58:24;23.40;90.80
25718;DHT22;13574;52.040;5.692;2023-05-15T12:00:51;23.50;90.70
25718;DHT22;13574;52.040;5.692;2023-05-15T12:05:46;23.20;91.10
25718;DHT22;13574;52.040;5.692;2023-05-15T12:08:12;23.00;90.90
25718;DHT22;13574;52.040;5.692;2023-05-15T12:10:42;23.10;91.10
25718;DHT22;13574;52.040;5.692;2023-05-15T12:13:10;23.10;91.70
25718;DHT22;13574;52.040;5.692;2023-05-15T12:15:37;23.00;91.70
25718;DHT22;13574;52.040;5.692;2023-05-15T12:18:03;22.80;91.80
25718;DHT22;13574;52.040;5.692;2023-05-15T12:20:33;22.90;91.70
25718;DHT22;13574;52.040;5.692;2023-05-15T12:23:00;22.50;92.40
25718;DHT22;13574;52.040;5.692;2023-05-15T12:25:25;22.50;92.30
25718;DHT22;13574;52.040;5.692;2023-05-15T12:27:51;22.80;92.20
25718;DHT22;13574;52.040;5.692;2023-05-15T12:30:19;23.20;91.80
25718;DHT22;13574;52.040;5.692;2023-05-15T12:32:45;23.40;91.60
25718;DHT22;13574;52.040;5.692;2023-05-15T12:35:10;23.40;91.10
25718;DHT22;13574;52.040;5.692;2023-05-15T12:37:37;23.60;91.30
25718;DHT22;13574;52.040;5.692;2023-05-15T12:40:04;23.50;91.40
25718;DHT22;13574;52.040;5.692;2023-05-15T12:42:43;23.40;91.10
25718;DHT22;13574;52.040;5.692;2023-05-15T12:45:16;23.60;91.20
25718;DHT22;13574;52.040;5.692;2023-05-15T12:47:43;23.20;90.90
25718;DHT22;13574;52.040;5.692;2023-05-15T12:50:20;23.40;91.10
25718;DHT22;13574;52.040;5.692;2023-05-15T12:55:24;23.80;91.40
25718;DHT22;13574;52.040;5.692;2023-05-15T12:58:13;23.70;90.80
25718;DHT22;13574;52.040;5.692;2023-05-15T13:00:43;23.70;90.70
25718;DHT22;13574;52.040;5.692;2023-05-15T13:03:13;23.50;90.80
25718;DHT22;13574;52.040;5.692;2023-05-15T13:05:42;23.60;90.80
25718;DHT22;13574;52.040;5.692;2023-05-15T13:08:08;23.60;90.60
25718;DHT22;13574;52.040;5.692;2023-05-15T13:10:38;23.70;90.40
25718;DHT22;13574;52.040;5.692;2023-05-15T13:13:04;23.70;90.60
25718;DHT22;13574;52.040;5.692;2023-05-15T13:15:35;23.40;90.40
25718;DHT22;13574;52.040;5.692;2023-05-15T13:18:04;23.50;90.70
25718;DHT22;13574;52.040;5.692;2023-05-15T13:20:40;23.90;90.70
25718;DHT22;13574;52.040;5.692;2023-05-15T13:23:07;24.30;90.40
25718;DHT22;13574;52.040;5.692;2023-05-15T13:25:33;24.40;90.60
25718;DHT22;13574;52.040;5.692;2023-05-15T13:28:01;24.50;90.20
25718;DHT22;13574;52.040;5.692;2023-05-15T13:30:28;24.60;90.10
25718;DHT22;13574;52.040;5.692;2023-05-15T13:32:53;24.30;89.60
25718;DHT22;13574;52.040;5.692;2023-05-15T13:35:19;24.30;89.50
25718;DHT22;13574;52.040;5.692;2023-05-15T13:37:46;24.30;89.90
25718;DHT22;13574;52.040;5.692;2023-05-15T13:40:12;23.90;89.30
25718;DHT22;13574;52.040;5.692;2023-05-15T13:42:39;24.10;89.90
25718;DHT22;13574;52.040;5.692;2023-05-15T13:45:09;24.00;88.80
25718;DHT22;13574;52.040;5.692;2023-05-15T13:47:35;23.90;89.60
25718;DHT22;13574;52.040;5.692;2023-05-15T13:50:13;23.70;90.20
25718;DHT22;13574;52.040;5.692;2023-05-15T13:52:41;23.90;90.20
25718;DHT22;13574;52.040;5.692;2023-05-15T13:55:07;24.20;90.10
25718;DHT22;13574;52.040;5.692;2023-05-15T13:57:37;24.40;89.90
25718;DHT22;13574;52.040;5.692;2023-05-15T14:00:10;24.50;89.60
25718;DHT22;13574;52.040;5.692;2023-05-15T14:02:40;24.50;88.50
25718;DHT22;13574;52.040;5.692;2023-05-15T14:05:08;24.30;88.50
25718;DHT22;13574;52.040;5.692;2023-05-15T14:07:33;24.10;89.20
25718;DHT22;13574;52.040;5.692;2023-05-15T14:09:59;24.20;88.80
25718;DHT22;13574;52.040;5.692;2023-05-15T14:12:25;24.50;88.90
25718;DHT22;13574;52.040;5.692;2023-05-15T14:14:51;24.70;88.20
25718;DHT22;13574;52.040;5.692;2023-05-15T14:17:16;24.90;87.20
25718;DHT22;13574;52.040;5.692;2023-05-15T14:19:45;24.70;87.40
25718;DHT22;13574;52.040;5.692;2023-05-15T14:22:10;24.60;88.00
25718;DHT22;13574;52.040;5.692;2023-05-15T14:24:36;24.30;88.40
25718;DHT22;13574;52.040;5.692;2023-05-15T14:27:02;24.10;89.10
25718;DHT22;13574;52.040;5.692;2023-05-15T14:29:27;23.90;89.90
25718;DHT22;13574;52.040;5.692;2023-05-15T14:31:53;23.70;90.30
25718;DHT22;13574;52.040;5.692;2023-05-15T14:34:19;23.60;90.50
25718;DHT22;13574;52.040;5.692;2023-05-15T14:36:47;23.50;90.70
25718;DHT22;13574;52.040;5.692;2023-05-15T14:39:17;23.50;91.00
25718;DHT22;13574;52.040;5.692;2023-05-15T14:41:43;23.00;91.50
25718;DHT22;13574;52.040;5.692;2023-05-15T14:44:09;22.40;92.00
25718;DHT22;13574;52.040;5.692;2023-05-15T14:46:35;22.00;92.50
25718;DHT22;13574;52.040;5.692;2023-05-15T14:49:04;21.80;92.90
25718;DHT22;13574;52.040;5.692;2023-05-15T14:51:30;22.10;92.80
25718;DHT22;13574;52.040;5.692;2023-05-15T14:53:56;21.90;92.80
25718;DHT22;13574;52.040;5.692;2023-05-15T14:56:22;21.70;92.80
25718;DHT22;13574;52.040;5.692;2023-05-15T14:58:48;21.50;93.60
25718;DHT22;13574;52.040;5.692;2023-05-15T15:01:15;21.50;93.50
25718;DHT22;13574;52.040;5.692;2023-05-15T15:03:40;21.60;93.50
25718;DHT22;13574;52.040;5.692;2023-05-15T15:06:09;21.80;93.30
25718;DHT22;13574;52.040;5.692;2023-05-15T15:08:35;22.00;93.00
25718;DHT22;13574;52.040;5.692;2023-05-15T15:11:00;22.10;92.50
25718;DHT22;13574;52.040;5.692;2023-05-15T15:13:27;22.00;92.20
25718;DHT22;13574;52.040;5.692;2023-05-15T15:15:54;21.90;92.70
25718;DHT22;13574;52.040;5.692;2023-05-15T15:18:20;21.80;92.30
25718;DHT22;13574;52.040;5.692;2023-05-15T15:20:46;21.80;92.40
25718;DHT22;13574;52.040;5.692;2023-05-15T15:23:12;22.00;92.60
25718;DHT22;13574;52.040;5.692;2023-05-15T15:25:38;22.10;92.60
25718;DHT22;13574;52.040;5.692;2023-05-15T15:28:03;21.90;92.60
25718;DHT22;13574;52.040;5.692;2023-05-15T15:30:29;21.50;93.10
25718;DHT22;13574;52.040;5.692;2023-05-15T15:32:55;21.50;93.20
25718;DHT22;13574;52.040;5.692;2023-05-15T15:35:22;21.10;93.30
25718;DHT22;13574;52.040;5.692;2023-05-15T15:37:48;20.90;93.80
25718;DHT22;13574;52.040;5.692;2023-05-15T15:40:13;20.30;94.40
25718;DHT22;13574;52.040;5.692;2023-05-15T15:42:39;20.40;94.40
25718;DHT22;13574;52.040;5.692;2023-05-15T15:45:05;20.60;94.60
25718;DHT22;13574;52.040;5.692;2023-05-15T15:47:31;21.00;94.30
25718;DHT22;13574;52.040;5.692;2023-05-15T15:49:57;21.10;94.20
25718;DHT22;13574;52.040;5.692;2023-05-15T15:52:23;21.20;94.20
25718;DHT22;13574;52.040;5.692;2023-05-15T15:54:49;20.90;94.10
25718;DHT22;13574;52.040;5.692;2023-05-15T15:57:16;21.00;94.30
25718;DHT22;13574;52.040;5.692;2023-05-15T15:59:45;20.90;94.70
25718;DHT22;13574;52.040;5.692;2023-05-15T16:02:11;20.90;93.90
25718;DHT22;13574;52.040;5.692;2023-05-15T16:04:39;20.90;94.20